sensor_id;sensor_type;location;lat;lon;timestamp;temperature;humidity
23801;DHT22;12081;48.614;10.226;2024-03-02T00:01:33;5.40;99.90
23801;DHT22;12081;48.614;10.226;2024-03-02T00:04:17;5.20;99.90
23801;DHT22;12081;48.614;10.226;2024-03-02T00:07:01;5.30;99.90
23801;DHT22;12081;48.614;10.226;2024-03-02T00:09:45;7.00;99.90
23801;DHT22;12081;48.614;10.226;2024-03-02T00:12:29;5.20;99.90
23801;DHT22;12081;48.614;10.226;2024-03-02T00:15:39;5.30;99.90
23801;DHT22;12081;48.614;10.226;2024-03-02T00:18:35;5.20;99.90
23801;DHT22;12081;48.614;10.226;2024-03-02T00:21:19;5.50;99.90
23801;DHT22;12081;48.614;10.226;2024-03-02T00:24:33;5.20;99.90
23801;DHT22;12081;48.614;10.226;2024-03-02T00:27:18;5.20;99.90
23801;DHT22;12081;48.614;10.226;2024-03-02T00:33:49;5.20;99.90
23801;DHT22;12081;48.614;10.226;2024-03-02T00:36:33;5.20;99.90
23801;DHT22;12081;48.614;10.226;2024-03-02T00:39:17;5.10;99.90
23801;DHT22;12081;48.614;10.226;2024-03-02T00:42:02;5.30;99.90
23801;DHT22;12081;48.614;10.226;2024-03-02T00:44:47;5.60;99.90
23801;DHT22;12081;48.614;10.226;2024-03-02T00:47:32;5.20;99.90
23801;DHT22;12081;48.614;10.226;2024-03-02T00:50:17;5.20;99.90
23801;DHT22;12081;48.614;10.226;2024-03-02T00:53:02;5.20;99.90
23801;DHT22;12081;48.614;10.226;2024-03-02T00:55:46;5.20;99.90
23801;DHT22;12081;48.614;10.226;2024-03-02T00:58:31;5.20;99.90
23801;DHT22;12081;48.614;10.226;2024-03-02T01:01:16;5.20;99.90
23801;DHT22;12081;48.614;10.226;2024-03-02T01:04:00;5.20;99.90
23801;DHT22;12081;48.614;10.226;2024-03-02T01:06:44;5.20;99.90
23801;DHT22;12081;48.614;10.226;2024-03-02T01:09:29;5.10;99.90
23801;DHT22;12081;48.614;10.226;2024-03-02T01:12:13;5.10;99.90
23801;DHT22;12081;48.614;10.226;2024-03-02T01:17:42;5.20;99.90
23801;DHT22;12081;48.614;10.226;2024-03-02T01:20:26;5.10;99.90
23801;DHT22;12081;48.614;10.226;2024-03-02T01:23:11;5.10;99.90
23801;DHT22;12081;48.614;10.226;2024-03-02T01:25:55;5.20;99.90
23801;DHT22;12081;48.614;10.226;2024-03-02T01:28:39;5.30;99.90
23801;DHT22;12081;48.614;10.226;2024-03-02T01:31:23;5.10;99.90
23801;DHT22;12081;48.614;10.226;2024-03-02T01:34:08;5.10;99.90
23801;DHT22;12081;48.614;10.226;2024-03-02T01:36:52;5.10;99.90
23801;DHT22;12081;48.614;10.226;2024-03-02T01:39:36;5.10;99.90
23801;DHT22;12081;48.614;10.226;2024-03-02T01:42:20;5.10;99.90
23801;DHT22;12081;48.614;10.226;2024-03-02T01:45:08;5.10;99.90
23801;DHT22;12081;48.614;10.226;2024-03-02T01:47:52;5.00;99.90
23801;DHT22;12081;48.614;10.226;2024-03-02T01:50:36;5.10;99.90
23801;DHT22;12081;48.614;10.226;2024-03-02T01:53:20;5.00;99.90
23801;DHT22;12081;48.614;10.226;2024-03-02T01:56:05;5.00;99.90
23801;DHT22;12081;48.614;10.226;2024-03-02T01:58:49;5.00;99.90
23801;DHT22;12081;48.614;10.226;2024-03-02T02:01:47;4.80;99.90
23801;DHT22;12081;48.614;10.226;2024-03-02T02:04:31;5.20;99.90
23801;DHT22;12081;48.614;10.226;2024-03-02T02:07:15;4.90;99.90
23801;DHT22;12081;48.614;10.226;2024-03-02T02:09:59;5.00;99.90
23801;DHT22;12081;48.614;10.226;2024-03-02T02:12:43;4.80;99.90
23801;DHT22;12081;48.614;10.226;2024-03-02T02:15:29;4.80;99.90
23801;DHT22;12081;48.614;10.226;2024-03-02T02:18:14;4.80;99.90
23801;DHT22;12081;48.614;10.226;2024-03-02T02:20:58;4.80;99.90
23801;DHT22;12081;48.614;10.226;2024-03-02T02:23:42;4.80;99.90
23801;DHT22;12081;48.614;10.226;2024-03-02T02:26:32;4.80;99.90
23801;DHT22;12081;48.614;10.226;2024-03-02T02:29:16;4.70;99.90
23801;DHT22;12081;48.614;10.226;2024-03-02T02:32:00;4.80;99.90
23801;DHT22;12081;48.614;10.226;2024-03-02T02:34:44;4.60;99.90
23801;DHT22;12081;48.614;10.226;2024-03-02T02:37:28;4.80;99.90
23801;DHT22;12081;48.614;10.226;2024-03-02T02:40:13;4.70;99.90
23801;DHT22;12081;48.614;10.226;2024-03-02T02:42:57;4.70;99.90
23801;DHT22;12081;48.614;10.226;2024-03-02T02:45:43;4.70;99.90
23801;DHT22;12081;48.614;10.226;2024-03-02T02:48:27;4.70;99.90
23801;DHT22;12081;48.614;10.226;2024-03-02T02:51:11;6.40;99.90
23801;DHT22;12081;48.614;10.226;2024-03-02T05:02:08;4.30;99.90
23801;DHT22;12081;48.614;10.226;2024-03-02T05:13:13;4.20;99.90
23801;DHT22;12081;48.614;10.226;2024-03-02T05:40:41;4.10;99.90
23801;DHT22;12081;48.614;10.226;2024-03-02T05:54:24;4.00;99.90
23801;DHT22;12081;48.614;10.226;2024-03-02T06:00:16;3.90;99.90
23801;DHT22;12081;48.614;10.226;2024-03-02T06:03:01;3.90;99.90
23801;DHT22;12081;48.614;10.226;2024-03-02T06:05:45;7.70;99.90
23801;DHT22;12081;48.614;10.226;2024-03-02T06:11:22;3.50;99.90
23801;DHT22;12081;48.614;10.226;2024-03-02T06:14:09;4.10;99.90
23801;DHT22;12081;48.614;10.226;2024-03-02T06:16:57;4.10;99.90
23801;DHT22;12081;48.614;10.226;2024-03-02T06:19:53;4.10;99.90
23801;DHT22;12081;48.614;10.226;2024-03-02T06:22:38;0.60;99.90
23801;DHT22;12081;48.614;10.226;2024-03-02T06:25:33;4.10;99.90
23801;DHT22;12081;48.614;10.226;2024-03-02T06:28:20;4.30;99.90
23801;DHT22;12081;48.614;10.226;2024-03-02T06:31:35;4.30;99.90
23801;DHT22;12081;48.614;10.226;2024-03-02T06:34:22;4.20;99.90
23801;DHT22;12081;48.614;10.226;2024-03-02T06:37:10;3.00;99.90
23801;DHT22;12081;48.614;10.226;2024-03-02T06:42:41;4.40;99.90
23801;DHT22;12081;48.614;10.226;2024-03-02T06:48:19;4.60;99.90
23801;DHT22;12081;48.614;10.226;2024-03-02T06:51:07;5.90;99.90
23801;DHT22;12081;48.614;10.226;2024-03-02T06:53:53;4.70;99.90
23801;DHT22;12081;48.614;10.226;2024-03-02T06:56:40;4.90;99.90
23801;DHT22;12081;48.614;10.226;2024-03-02T06:59:27;4.90;99.90
23801;DHT22;12081;48.614;10.226;2024-03-02T07:02:12;4.70;99.90
23801;DHT22;12081;48.614;10.226;2024-03-02T07:10:26;5.00;99.90
23801;DHT22;12081;48.614;10.226;2024-03-02T07:13:10;5.00;99.90
23801;DHT22;12081;48.614;10.226;2024-03-02T07:15:54;5.20;99.90
23801;DHT22;12081;48.614;10.226;2024-03-02T07:18:47;5.20;99.90
23801;DHT22;12081;48.614;10.226;2024-03-02T07:21:35;5.30;99.90
23801;DHT22;12081;48.614;10.226;2024-03-02T07:24:19;5.40;99.90
23801;DHT22;12081;48.614;10.226;2024-03-02T07:27:03;5.40;99.90
23801;DHT22;12081;48.614;10.226;2024-03-02T07:29:47;5.40;99.90
23801;DHT22;12081;48.614;10.226;2024-03-02T07:32:31;5.40;99.90
23801;DHT22;12081;48.614;10.226;2024-03-02T07:35:15;5.50;99.90
23801;DHT22;12081;48.614;10.226;2024-03-02T07:37:59;5.60;99.90
23801;DHT22;12081;48.614;10.226;2024-03-02T07:40:43;5.70;99.90
23801;DHT22;12081;48.614;10.226;2024-03-02T07:43:27;5.80;99.90
23801;DHT22;12081;48.614;10.226;2024-03-02T07:46:12;5.90;99.90
23801;DHT22;12081;48.614;10.226;2024-03-02T07:48:57;6.00;99.90
23801;DHT22;12081;48.614;10.226;2024-03-02T07:51:41;6.00;99.90
23801;DHT22;12081;48.614;10.226;2024-03-02T07:54:25;6.20;99.90
23801;DHT22;12081;48.614;10.226;2024-03-02T07:57:10;6.30;99.90
23801;DHT22;12081;48.614;10.226;2024-03-02T07:59:54;6.30;99.90
23801;DHT22;12081;48.614;10.226;2024-03-02T08:02:39;6.40;99.90
23801;DHT22;12081;48.614;10.226;2024-03-02T08:05:23;7.90;99.90
23801;DHT22;12081;48.614;10.226;2024-03-02T08:08:07;6.60;99.90
23801;DHT22;12081;48.614;10.226;2024-03-02T08:10:51;6.70;99.90
23801;DHT22;12081;48.614;10.226;2024-03-02T08:13:35;8.50;99.90
23801;DHT22;12081;48.614;10.226;2024-03-02T08:16:19;6.80;99.90
23801;DHT22;12081;48.614;10.226;2024-03-02T08:19:04;7.00;99.90
23801;DHT22;12081;48.614;10.226;2024-03-02T08:21:48;7.40;99.90
23801;DHT22;12081;48.614;10.226;2024-03-02T08:24:32;7.40;99.90
23801;DHT22;12081;48.614;10.226;2024-03-02T08:27:16;7.60;99.90
23801;DHT22;12081;48.614;10.226;2024-03-02T08:30:00;7.70;99.90
23801;DHT22;12081;48.614;10.226;2024-03-02T08:32:44;7.80;99.90
23801;DHT22;12081;48.614;10.226;2024-03-02T08:35:29;7.90;99.90
23801;DHT22;12081;48.614;10.226;2024-03-02T08:38:13;8.40;99.90
23801;DHT22;12081;48.614;10.226;2024-03-02T08:40:57;7.90;99.90
23801;DHT22;12081;48.614;10.226;2024-03-02T08:43:42;8.00;99.90
23801;DHT22;12081;48.614;10.226;2024-03-02T08:46:26;8.60;99.90
23801;DHT22;12081;48.614;10.226;2024-03-02T08:49:10;8.20;99.90
23801;DHT22;12081;48.614;10.226;2024-03-02T08:51:54;8.30;99.90
23801;DHT22;12081;48.614;10.226;2024-03-02T08:54:39;8.60;99.90
23801;DHT22;12081;48.614;10.226;2024-03-02T08:57:23;9.00;99.90
23801;DHT22;12081;48.614;10.226;2024-03-02T09:00:08;9.40;99.90
23801;DHT22;12081;48.614;10.226;2024-03-02T09:02:52;9.40;99.90
23801;DHT22;12081;48.614;10.226;2024-03-02T09:05:36;9.30;99.90
23801;DHT22;12081;48.614;10.226;2024-03-02T09:08:20;10.60;99.90
23801;DHT22;12081;48.614;10.226;2024-03-02T09:11:05;12.50;99.90
23801;DHT22;12081;48.614;10.226;2024-03-02T09:13:50;9.50;99.90
23801;DHT22;12081;48.614;10.226;2024-03-02T09:16:34;9.80;99.90
23801;DHT22;12081;48.614;10.226;2024-03-02T09:19:18;12.60;99.90
23801;DHT22;12081;48.614;10.226;2024-03-02T09:22:02;11.50;99.90
23801;DHT22;12081;48.614;10.226;2024-03-02T09:24:49;10.00;99.90
23801;DHT22;12081;48.614;10.226;2024-03-02T09:27:33;10.10;99.90
23801;DHT22;12081;48.614;10.226;2024-03-02T09:30:17;10.90;99.90
23801;DHT22;12081;48.614;10.226;2024-03-02T09:33:01;11.10;99.90
23801;DHT22;12081;48.614;10.226;2024-03-02T09:35:45;11.30;99.90
23801;DHT22;12081;48.614;10.226;2024-03-02T09:38:29;11.80;99.90
23801;DHT22;12081;48.614;10.226;2024-03-02T09:41:15;12.40;99.90
23801;DHT22;12081;48.614;10.226;2024-03-02T09:44:00;12.50;99.90
23801;DHT22;12081;48.614;10.226;2024-03-02T09:46:48;12.30;99.90
23801;DHT22;12081;48.614;10.226;2024-03-02T09:49:33;13.80;99.90
23801;DHT22;12081;48.614;10.226;2024-03-02T09:52:17;11.80;99.90
23801;DHT22;12081;48.614;10.226;2024-03-02T09:55:01;12.50;99.90
23801;DHT22;12081;48.614;10.226;2024-03-02T09:57:46;11.40;99.90
23801;DHT22;12081;48.614;10.226;2024-03-02T10:00:32;14.50;99.90
23801;DHT22;12081;48.614;10.226;2024-03-02T10:03:19;11.90;99.90
23801;DHT22;12081;48.614;10.226;2024-03-02T10:06:19;14.50;99.90
23801;DHT22;12081;48.614;10.226;2024-03-02T10:09:04;14.10;99.90
23801;DHT22;12081;48.614;10.226;2024-03-02T10:11:48;15.40;99.90
23801;DHT22;12081;48.614;10.226;2024-03-02T10:14:32;16.70;99.90
23801;DHT22;12081;48.614;10.226;2024-03-02T10:17:17;17.00;99.90
23801;DHT22;12081;48.614;10.226;2024-03-02T10:20:26;15.50;99.90
23801;DHT22;12081;48.614;10.226;2024-03-02T10:23:14;17.00;99.20
23801;DHT22;12081;48.614;10.226;2024-03-02T10:25:59;17.50;95.20
23801;DHT22;12081;48.614;10.226;2024-03-02T10:28:46;16.50;95.40
23801;DHT22;12081;48.614;10.226;2024-03-02T10:31:32;16.50;96.80
23801;DHT22;12081;48.614;10.226;2024-03-02T10:34:17;16.50;98.30
23801;DHT22;12081;48.614;10.226;2024-03-02T10:37:01;16.20;99.90
23801;DHT22;12081;48.614;10.226;2024-03-02T10:39:48;15.10;99.90
23801;DHT22;12081;48.614;10.226;2024-03-02T10:42:32;15.60;99.90
23801;DHT22;12081;48.614;10.226;2024-03-02T10:45:17;18.00;96.10
23801;DHT22;12081;48.614;10.226;2024-03-02T10:48:03;20.60;81.40
23801;DHT22;12081;48.614;10.226;2024-03-02T10:50:49;22.40;69.00
23801;DHT22;12081;48.614;10.226;2024-03-02T10:53:35;23.80;60.20
23801;DHT22;12081;48.614;10.226;2024-03-02T10:56:23;24.40;56.70
23801;DHT22;12081;48.614;10.226;2024-03-02T10:59:21;24.00;54.10
23801;DHT22;12081;48.614;10.226;2024-03-02T11:02:11;22.80;55.60
23801;DHT22;12081;48.614;10.226;2024-03-02T11:04:56;22.30;56.40
23801;DHT22;12081;48.614;10.226;2024-03-02T11:07:44;21.40;58.00
23801;DHT22;12081;48.614;10.226;2024-03-02T11:10:57;22.60;60.00
23801;DHT22;12081;48.614;10.226;2024-03-02T11:13:45;21.30;60.00
23801;DHT22;12081;48.614;10.226;2024-03-02T11:16:37;22.20;58.10
23801;DHT22;12081;48.614;10.226;2024-03-02T11:19:23;22.60;57.80
23801;DHT22;12081;48.614;10.226;2024-03-02T11:22:08;24.10;56.90
23801;DHT22;12081;48.614;10.226;2024-03-02T11:24:53;24.20;55.70
23801;DHT22;12081;48.614;10.226;2024-03-02T11:33:23;22.10;56.40
23801;DHT22;12081;48.614;10.226;2024-03-02T11:36:09;21.20;57.60
23801;DHT22;12081;48.614;10.226;2024-03-02T11:38:53;21.30;57.50
23801;DHT22;12081;48.614;10.226;2024-03-02T11:41:37;21.70;58.40
23801;DHT22;12081;48.614;10.226;2024-03-02T11:44:21;22.90;56.10
23801;DHT22;12081;48.614;10.226;2024-03-02T11:47:06;23.40;54.60
23801;DHT22;12081;48.614;10.226;2024-03-02T11:49:51;23.70;54.40
23801;DHT22;12081;48.614;10.226;2024-03-02T11:52:38;23.70;54.00
23801;DHT22;12081;48.614;10.226;2024-03-02T11:55:25;23.50;54.90
23801;DHT22;12081;48.614;10.226;2024-03-02T11:58:09;23.60;55.10
23801;DHT22;12081;48.614;10.226;2024-03-02T12:00:54;23.20;54.50
23801;DHT22;12081;48.614;10.226;2024-03-02T12:03:39;22.80;55.70
23801;DHT22;12081;48.614;10.226;2024-03-02T12:06:24;22.50;55.60
23801;DHT22;12081;48.614;10.226;2024-03-02T12:09:10;22.80;55.60
23801;DHT22;12081;48.614;10.226;2024-03-02T12:12:17;22.50;56.00
23801;DHT22;12081;48.614;10.226;2024-03-02T12:15:05;23.50;54.60
23801;DHT22;12081;48.614;10.226;2024-03-02T12:17:56;24.20;53.10
23801;DHT22;12081;48.614;10.226;2024-03-02T12:20:40;24.30;52.90
23801;DHT22;12081;48.614;10.226;2024-03-02T12:23:25;24.40;53.10
23801;DHT22;12081;48.614;10.226;2024-03-02T12:26:09;24.80;52.20
23801;DHT22;12081;48.614;10.226;2024-03-02T12:28:54;25.20;52.60
23801;DHT22;12081;48.614;10.226;2024-03-02T12:31:39;25.90;50.30
23801;DHT22;12081;48.614;10.226;2024-03-02T12:34:23;25.20;50.70
23801;DHT22;12081;48.614;10.226;2024-03-02T12:37:07;24.60;51.40
23801;DHT22;12081;48.614;10.226;2024-03-02T12:39:52;24.50;52.30
23801;DHT22;12081;48.614;10.226;2024-03-02T12:42:37;24.60;51.90
23801;DHT22;12081;48.614;10.226;2024-03-02T12:45:23;23.90;52.60
23801;DHT22;12081;48.614;10.226;2024-03-02T12:48:10;22.70;55.80
23801;DHT22;12081;48.614;10.226;2024-03-02T12:50:54;22.90;55.50
23801;DHT22;12081;48.614;10.226;2024-03-02T12:53:39;23.00;56.10
23801;DHT22;12081;48.614;10.226;2024-03-02T12:56:24;22.60;56.40
23801;DHT22;12081;48.614;10.226;2024-03-02T12:59:08;22.80;55.80
23801;DHT22;12081;48.614;10.226;2024-03-02T13:01:55;23.20;55.20
23801;DHT22;12081;48.614;10.226;2024-03-02T13:04:42;22.90;55.50
23801;DHT22;12081;48.614;10.226;2024-03-02T13:07:27;22.30;56.90
23801;DHT22;12081;48.614;10.226;2024-03-02T13:10:12;21.40;57.50
23801;DHT22;12081;48.614;10.226;2024-03-02T13:12:56;21.40;59.10
23801;DHT22;12081;48.614;10.226;2024-03-02T13:15:40;21.50;58.70
23801;DHT22;12081;48.614;10.226;2024-03-02T13:18:24;20.70;59.20
23801;DHT22;12081;48.614;10.226;2024-03-02T13:21:09;20.50;60.40
23801;DHT22;12081;48.614;10.226;2024-03-02T13:23:53;20.10;61.80
23801;DHT22;12081;48.614;10.226;2024-03-02T13:26:37;19.00;62.80
23801;DHT22;12081;48.614;10.226;2024-03-02T13:29:21;18.80;66.10
23801;DHT22;12081;48.614;10.226;2024-03-02T13:32:05;17.50;68.60
23801;DHT22;12081;48.614;10.226;2024-03-02T13:34:50;17.40;69.60
23801;DHT22;12081;48.614;10.226;2024-03-02T13:37:34;17.70;71.90
23801;DHT22;12081;48.614;10.226;2024-03-02T13:40:19;17.90;73.20
23801;DHT22;12081;48.614;10.226;2024-03-02T13:43:04;17.80;72.10
23801;DHT22;12081;48.614;10.226;2024-03-02T13:45:49;18.20;71.40
23801;DHT22;12081;48.614;10.226;2024-03-02T13:48:33;18.80;70.90
23801;DHT22;12081;48.614;10.226;2024-03-02T13:51:17;18.90;71.40
23801;DHT22;12081;48.614;10.226;2024-03-02T13:54:01;18.60;70.40
23801;DHT22;12081;48.614;10.226;2024-03-02T13:56:47;20.80;70.90
23801;DHT22;12081;48.614;10.226;2024-03-02T13:59:31;20.10;71.20
23801;DHT22;12081;48.614;10.226;2024-03-02T14:02:16;20.40;71.70
23801;DHT22;12081;48.614;10.226;2024-03-02T14:05:00;18.90;70.40
23801;DHT22;12081;48.614;10.226;2024-03-02T14:07:44;17.80;71.80
23801;DHT22;12081;48.614;10.226;2024-03-02T14:10:28;17.50;73.90
23801;DHT22;12081;48.614;10.226;2024-03-02T14:13:12;17.20;75.20
23801;DHT22;12081;48.614;10.226;2024-03-02T14:15:56;17.00;75.90
23801;DHT22;12081;48.614;10.226;2024-03-02T14:18:42;17.00;75.50
23801;DHT22;12081;48.614;10.226;2024-03-02T14:21:26;16.90;75.30
23801;DHT22;12081;48.614;10.226;2024-03-02T14:24:10;17.00;77.60
23801;DHT22;12081;48.614;10.226;2024-03-02T14:26:54;16.40;80.10
23801;DHT22;12081;48.614;10.226;2024-03-02T14:29:38;16.60;81.00
23801;DHT22;12081;48.614;10.226;2024-03-02T14:32:24;16.80;83.60
23801;DHT22;12081;48.614;10.226;2024-03-02T14:35:08;16.40;84.50
23801;DHT22;12081;48.614;10.226;2024-03-02T14:37:56;16.00;85.90
23801;DHT22;12081;48.614;10.226;2024-03-02T14:40:41;15.60;89.50
23801;DHT22;12081;48.614;10.226;2024-03-02T14:43:25;15.90;91.40
23801;DHT22;12081;48.614;10.226;2024-03-02T14:46:10;15.30;92.40
23801;DHT22;12081;48.614;10.226;2024-03-02T14:48:55;16.00;93.20
23801;DHT22;12081;48.614;10.226;2024-03-02T14:51:39;15.20;95.00
23801;DHT22;12081;48.614;10.226;2024-03-02T14:54:23;15.00;95.10
23801;DHT22;12081;48.614;10.226;2024-03-02T14:57:07;15.70;96.50
23801;DHT22;12081;48.614;10.226;2024-03-02T14:59:52;16.00;96.80
23801;DHT22;12081;48.614;10.226;2024-03-02T15:02:36;16.50;97.70
23801;DHT22;12081;48.614;10.226;2024-03-02T15:05:20;14.50;98.10
23801;DHT22;12081;48.614;10.226;2024-03-02T15:08:05;15.10;99.90
23801;DHT22;12081;48.614;10.226;2024-03-02T15:10:49;14.40;99.90
23801;DHT22;12081;48.614;10.226;2024-03-02T15:13:33;15.00;99.90
23801;DHT22;12081;48.614;10.226;2024-03-02T15:16:18;15.50;99.90
23801;DHT22;12081;48.614;10.226;2024-03-02T15:19:03;14.20;99.90
23801;DHT22;12081;48.614;10.226;2024-03-02T15:21:47;14.50;99.90
23801;DHT22;12081;48.614;10.226;2024-03-02T15:24:32;14.60;99.90
23801;DHT22;12081;48.614;10.226;2024-03-02T15:27:16;14.40;99.90
23801;DHT22;12081;48.614;10.226;2024-03-02T15:30:00;13.70;99.90
23801;DHT22;12081;48.614;10.226;2024-03-02T15:32:44;14.20;99.90
23801;DHT22;12081;48.614;10.226;2024-03-02T15:35:28;13.40;99.90
23801;DHT22;12081;48.614;10.226;2024-03-02T15:38:12;14.40;99.90
23801;DHT22;12081;48.614;10.226;2024-03-02T15:40:58;14.20;99.90
23801;DHT22;12081;48.614;10.226;2024-03-02T15:43:43;15.00;99.90
23801;DHT22;12081;48.614;10.226;2024-03-02T15:46:27;15.00;99.90
23801;DHT22;12081;48.614;10.226;2024-03-02T15:49:11;15.70;99.90
23801;DHT22;12081;48.614;10.226;2024-03-02T15:51:55;15.60;99.90
23801;DHT22;12081;48.614;10.226;2024-03-02T15:54:39;13.30;99.90
23801;DHT22;12081;48.614;10.226;2024-03-02T15:57:23;13.30;99.90
23801;DHT22;12081;48.614;10.226;2024-03-02T16:00:08;14.20;99.90
23801;DHT22;12081;48.614;10.226;2024-03-02T16:02:52;12.80;99.90
23801;DHT22;12081;48.614;10.226;2024-03-02T16:05:36;12.20;99.90
23801;DHT22;12081;48.614;10.226;2024-03-02T16:08:20;12.00;99.90
23801;DHT22;12081;48.614;10.226;2024-03-02T16:11:04;13.60;99.90
23801;DHT22;12081;48.614;10.226;2024-03-02T16:13:48;12.70;99.90
23801;DHT22;12081;48.614;10.226;2024-03-02T16:16:32;12.80;99.90
23801;DHT22;12081;48.614;10.226;2024-03-02T16:19:17;14.10;99.90
23801;DHT22;12081;48.614;10.226;2024-03-02T16:22:01;12.30;99.90
23801;DHT22;12081;48.614;10.226;2024-03-02T16:24:45;11.10;99.90
23801;DHT22;12081;48.614;10.226;2024-03-02T16:27:29;10.90;99.90
23801;DHT22;12081;48.614;10.226;2024-03-02T16:30:13;13.20;99.90
23801;DHT22;12081;48.614;10.226;2024-03-02T16:32:58;10.80;99.90
23801;DHT22;12081;48.614;10.226;2024-03-02T16:35:42;10.40;99.90
23801;DHT22;12081;48.614;10.226;2024-03-02T16:38:29;10.40;99.90
23801;DHT22;12081;48.614;10.226;2024-03-02T16:41:13;10.40;99.90
23801;DHT22;12081;48.614;10.226;2024-03-02T16:43:58;10.10;99.90
23801;DHT22;12081;48.614;10.226;2024-03-02T16:46:42;10.10;99.90
23801;DHT22;12081;48.614;10.226;2024-03-02T16:49:28;9.90;99.90
23801;DHT22;12081;48.614;10.226;2024-03-02T16:52:12;9.90;99.90
23801;DHT22;12081;48.614;10.226;2024-03-02T16:54:58;10.70;99.90
23801;DHT22;12081;48.614;10.226;2024-03-02T16:57:42;12.40;99.90
23801;DHT22;12081;48.614;10.226;2024-03-02T17:00:26;9.50;99.90
23801;DHT22;12081;48.614;10.226;2024-03-02T17:03:10;9.50;99.90
23801;DHT22;12081;48.614;10.226;2024-03-02T17:05:54;9.40;99.90
23801;DHT22;12081;48.614;10.226;2024-03-02T17:08:38;9.40;99.90
23801;DHT22;12081;48.614;10.226;2024-03-02T17:11:23;9.40;99.90
23801;DHT22;12081;48.614;10.226;2024-03-02T17:14:07;9.20;99.90
23801;DHT22;12081;48.614;10.226;2024-03-02T17:16:51;9.20;99.90
23801;DHT22;12081;48.614;10.226;2024-03-02T17:19:35;9.00;99.90
23801;DHT22;12081;48.614;10.226;2024-03-02T17:22:19;11.70;99.90
23801;DHT22;12081;48.614;10.226;2024-03-02T17:25:04;8.80;99.90
23801;DHT22;12081;48.614;10.226;2024-03-02T17:27:48;8.80;99.90
23801;DHT22;12081;48.614;10.226;2024-03-02T17:30:32;8.80;99.90
23801;DHT22;12081;48.614;10.226;2024-03-02T17:36:00;8.90;99.90
23801;DHT22;12081;48.614;10.226;2024-03-02T17:38:45;8.60;99.90
23801;DHT22;12081;48.614;10.226;2024-03-02T17:41:29;8.40;99.90
23801;DHT22;12081;48.614;10.226;2024-03-02T17:44:13;8.50;99.90
23801;DHT22;12081;48.614;10.226;2024-03-02T17:46:57;8.40;99.90
23801;DHT22;12081;48.614;10.226;2024-03-02T17:49:41;8.40;99.90
23801;DHT22;12081;48.614;10.226;2024-03-02T17:52:25;8.30;99.90
23801;DHT22;12081;48.614;10.226;2024-03-02T17:55:09;8.30;99.90
23801;DHT22;12081;48.614;10.226;2024-03-02T17:57:53;8.20;99.90
23801;DHT22;12081;48.614;10.226;2024-03-02T18:00:37;8.40;99.90
23801;DHT22;12081;48.614;10.226;2024-03-02T18:03:21;8.10;99.90
23801;DHT22;12081;48.614;10.226;2024-03-02T18:06:05;8.10;99.90
23801;DHT22;12081;48.614;10.226;2024-03-02T18:08:50;8.10;99.90
23801;DHT22;12081;48.614;10.226;2024-03-02T18:11:34;7.90;99.90
23801;DHT22;12081;48.614;10.226;2024-03-02T18:14:18;7.90;99.90
23801;DHT22;12081;48.614;10.226;2024-03-02T18:17:02;7.80;99.90
23801;DHT22;12081;48.614;10.226;2024-03-02T18:19:50;7.90;99.90
23801;DHT22;12081;48.614;10.226;2024-03-02T18:22:34;7.70;99.90
23801;DHT22;12081;48.614;10.226;2024-03-02T18:25:18;7.70;99.90
23801;DHT22;12081;48.614;10.226;2024-03-02T18:28:02;7.60;99.90
23801;DHT22;12081;48.614;10.226;2024-03-02T18:30:47;7.60;99.90
23801;DHT22;12081;48.614;10.226;2024-03-02T18:33:31;7.60;99.90
23801;DHT22;12081;48.614;10.226;2024-03-02T18:36:15;7.50;99.90
23801;DHT22;12081;48.614;10.226;2024-03-02T18:38:59;7.50;99.90
23801;DHT22;12081;48.614;10.226;2024-03-02T18:41:44;7.40;99.90
23801;DHT22;12081;48.614;10.226;2024-03-02T18:44:28;7.30;99.90
23801;DHT22;12081;48.614;10.226;2024-03-02T18:47:12;7.30;99.90
23801;DHT22;12081;48.614;10.226;2024-03-02T18:49:57;7.30;99.90
23801;DHT22;12081;48.614;10.226;2024-03-02T18:55:26;6.90;99.90
23801;DHT22;12081;48.614;10.226;2024-03-02T18:58:11;7.20;99.90
23801;DHT22;12081;48.614;10.226;2024-03-02T19:06:24;7.00;99.90
23801;DHT22;12081;48.614;10.226;2024-03-02T19:09:08;7.10;99.90
23801;DHT22;12081;48.614;10.226;2024-03-02T19:11:53;7.00;99.90
23801;DHT22;12081;48.614;10.226;2024-03-02T19:14:39;6.90;99.90
23801;DHT22;12081;48.614;10.226;2024-03-02T19:17:23;6.90;99.90
23801;DHT22;12081;48.614;10.226;2024-03-02T19:20:07;9.00;99.90
23801;DHT22;12081;48.614;10.226;2024-03-02T19:22:54;6.80;99.90
23801;DHT22;12081;48.614;10.226;2024-03-02T19:25:38;6.80;99.90
23801;DHT22;12081;48.614;10.226;2024-03-02T19:28:23;6.70;99.90
23801;DHT22;12081;48.614;10.226;2024-03-02T19:31:06;6.90;99.90
23801;DHT22;12081;48.614;10.226;2024-03-02T19:33:50;6.60;99.90
23801;DHT22;12081;48.614;10.226;2024-03-02T19:36:35;6.60;99.90
23801;DHT22;12081;48.614;10.226;2024-03-02T19:39:19;6.50;99.90
23801;DHT22;12081;48.614;10.226;2024-03-02T19:42:10;6.50;99.90
23801;DHT22;12081;48.614;10.226;2024-03-02T19:44:54;6.50;99.90
23801;DHT22;12081;48.614;10.226;2024-03-02T19:47:38;6.40;99.90
23801;DHT22;12081;48.614;10.226;2024-03-02T19:50:22;7.00;99.90
23801;DHT22;12081;48.614;10.226;2024-03-02T19:53:06;6.40;99.90
23801;DHT22;12081;48.614;10.226;2024-03-02T19:55:50;6.30;99.90
23801;DHT22;12081;48.614;10.226;2024-03-02T19:58:34;6.30;99.90
23801;DHT22;12081;48.614;10.226;2024-03-02T20:01:19;6.30;99.90
23801;DHT22;12081;48.614;10.226;2024-03-02T20:04:03;6.20;99.90
23801;DHT22;12081;48.614;10.226;2024-03-02T20:06:47;6.20;99.90
23801;DHT22;12081;48.614;10.226;2024-03-02T20:09:31;6.20;99.90
23801;DHT22;12081;48.614;10.226;2024-03-02T20:12:16;6.10;99.90
23801;DHT22;12081;48.614;10.226;2024-03-02T20:15:00;6.20;99.90
23801;DHT22;12081;48.614;10.226;2024-03-02T20:17:44;6.00;99.90
23801;DHT22;12081;48.614;10.226;2024-03-02T20:20:30;6.00;99.90
23801;DHT22;12081;48.614;10.226;2024-03-02T20:23:14;5.90;99.90
23801;DHT22;12081;48.614;10.226;2024-03-02T20:25:58;5.90;99.90
23801;DHT22;12081;48.614;10.226;2024-03-02T20:28:43;5.80;99.90
23801;DHT22;12081;48.614;10.226;2024-03-02T20:31:28;7.50;99.90
23801;DHT22;12081;48.614;10.226;2024-03-02T20:34:12;5.80;99.90
23801;DHT22;12081;48.614;10.226;2024-03-02T20:36:58;5.70;99.90
23801;DHT22;12081;48.614;10.226;2024-03-02T20:39:44;5.70;99.90
23801;DHT22;12081;48.614;10.226;2024-03-02T20:42:30;5.70;99.90
23801;DHT22;12081;48.614;10.226;2024-03-02T20:45:16;7.20;99.90
23801;DHT22;12081;48.614;10.226;2024-03-02T20:48:02;5.70;99.90
23801;DHT22;12081;48.614;10.226;2024-03-02T20:50:47;5.60;99.90